UKV5035 KGCN-KPHX
Flight info
| Callsign | UKV5035 |
|---|---|
| Flight time | 0h 45m |
| Altitude | 29000 |
| Route | PGS TENTS BRUSR1 |
| Aircraft | A21N/M-SDE2E3FGHIRWXY/LB1 |
Departure
| Time | 2026-05-09 10:44 |
|---|---|
| Airport | Grand Canyon National Park Airport (KGCN) |
Arrival
| Time | 2026-05-09 11:30 |
|---|---|
| Airport | Phoenix Sky Harbor International Airport (KPHX) |
| Time | Latitude | Longitude | Altitude | Speed | Heading |
|---|---|---|---|---|---|
| 2026-05-09 10:34 | 35.95814 | -112.13861 | 6578 ft | 0 kts | 40° |
| 2026-05-09 10:40 | 35.95832 | -112.13851 | 6578 ft | 9 kts | 12° |
| 2026-05-09 10:41 | 35.95897 | -112.13817 | 6578 ft | 11 kts | 50° |
| 2026-05-09 10:41 | 35.95932 | -112.13775 | 6578 ft | 0 kts | 65° |
| 2026-05-09 10:42 | 35.95940 | -112.13768 | 6578 ft | 3 kts | 31° |
| 2026-05-09 10:42 | 35.95971 | -112.13743 | 6578 ft | 9 kts | 37° |
| 2026-05-09 10:42 | 35.96051 | -112.13658 | 6578 ft | 16 kts | 40° |
| 2026-05-09 10:42 | 35.96066 | -112.13643 | 6578 ft | 3 kts | 36° |
| 2026-05-09 10:43 | 35.96091 | -112.13637 | 6578 ft | 5 kts | 342° |
| 2026-05-09 10:43 | 35.96124 | -112.13670 | 6578 ft | 8 kts | 303° |
| 2026-05-09 10:43 | 35.96138 | -112.13745 | 6578 ft | 11 kts | 238° |
| 2026-05-09 10:43 | 35.96119 | -112.13767 | 6577 ft | 0 kts | 221° |
| 2026-05-09 10:44 | 35.96018 | -112.13875 | 6577 ft | 62 kts | 220° |
| 2026-05-09 10:44 | 35.95450 | -112.14473 | 6579 ft | 149 kts | 220° |
| 2026-05-09 10:44 | 35.94544 | -112.15435 | 6907 ft | 181 kts | 221° |
| 2026-05-09 10:44 | 35.93555 | -112.16453 | 7770 ft | 191 kts | 222° |
| 2026-05-09 10:45 | 35.92450 | -112.17584 | 8237 ft | 218 kts | 222° |
| 2026-05-09 10:46 | 35.90664 | -112.25209 | 9833 ft | 279 kts | 286° |
| 2026-05-09 10:46 | 35.91185 | -112.27563 | 10367 ft | 293 kts | 286° |
| 2026-05-09 10:46 | 35.91710 | -112.30050 | 10632 ft | 313 kts | 285° |
| 2026-05-09 10:46 | 35.92028 | -112.32807 | 10864 ft | 336 kts | 271° |
| 2026-05-09 10:47 | 35.91640 | -112.35737 | 11083 ft | 359 kts | 255° |
| 2026-05-09 10:47 | 35.90757 | -112.38709 | 11296 ft | 377 kts | 251° |
| 2026-05-09 10:47 | 35.89780 | -112.41784 | 11497 ft | 393 kts | 251° |
| 2026-05-09 10:47 | 35.88897 | -112.45019 | 11877 ft | 400 kts | 255° |
| 2026-05-09 10:48 | 35.88098 | -112.48319 | 12342 ft | 404 kts | 255° |
| 2026-05-09 10:48 | 35.87570 | -112.50535 | 12617 ft | 407 kts | 255° |
| 2026-05-09 10:48 | 35.86513 | -112.54998 | 13335 ft | 412 kts | 255° |
| 2026-05-09 10:48 | 35.85706 | -112.58400 | 13876 ft | 415 kts | 255° |
| 2026-05-09 10:49 | 35.85157 | -112.60714 | 14176 ft | 417 kts | 255° |
| 2026-05-09 10:49 | 35.84339 | -112.64155 | 14669 ft | 419 kts | 255° |
| 2026-05-09 10:49 | 35.83514 | -112.67612 | 15234 ft | 421 kts | 255° |
| 2026-05-09 10:49 | 35.82683 | -112.71090 | 15781 ft | 424 kts | 255° |
| 2026-05-09 10:50 | 35.81862 | -112.74533 | 16240 ft | 425 kts | 255° |
| 2026-05-09 10:50 | 35.81024 | -112.78043 | 16694 ft | 427 kts | 255° |
| 2026-05-09 10:50 | 35.80183 | -112.81561 | 17160 ft | 429 kts | 254° |
| 2026-05-09 10:50 | 35.79336 | -112.85090 | 17628 ft | 430 kts | 254° |
| 2026-05-09 10:51 | 35.78484 | -112.88628 | 18100 ft | 432 kts | 254° |
| 2026-05-09 10:51 | 35.77627 | -112.92183 | 18521 ft | 433 kts | 254° |
| 2026-05-09 10:51 | 35.76768 | -112.95742 | 18938 ft | 435 kts | 254° |
| 2026-05-09 10:51 | 35.75902 | -112.99325 | 19370 ft | 436 kts | 254° |
| 2026-05-09 10:52 | 35.75048 | -113.02871 | 19825 ft | 438 kts | 254° |
| 2026-05-09 10:52 | 35.74177 | -113.06468 | 20279 ft | 440 kts | 254° |
| 2026-05-09 10:52 | 35.73300 | -113.10081 | 20743 ft | 442 kts | 255° |
| 2026-05-09 10:52 | 35.72415 | -113.13718 | 21262 ft | 444 kts | 255° |
| 2026-05-09 10:53 | 35.71525 | -113.17377 | 21831 ft | 446 kts | 255° |
| 2026-05-09 10:53 | 35.70633 | -113.21048 | 22344 ft | 448 kts | 255° |
| 2026-05-09 10:53 | 35.69735 | -113.24734 | 22808 ft | 451 kts | 255° |
| 2026-05-09 10:53 | 35.68831 | -113.28440 | 23229 ft | 453 kts | 255° |
| 2026-05-09 10:54 | 35.67932 | -113.32114 | 23609 ft | 454 kts | 255° |
| 2026-05-09 10:54 | 35.66810 | -113.35757 | 23895 ft | 459 kts | 247° |
| 2026-05-09 10:54 | 35.65188 | -113.39168 | 24160 ft | 465 kts | 237° |
| 2026-05-09 10:54 | 35.63055 | -113.42192 | 24431 ft | 472 kts | 227° |
| 2026-05-09 10:55 | 35.60467 | -113.44702 | 24731 ft | 478 kts | 216° |
| 2026-05-09 10:55 | 35.57504 | -113.46601 | 25064 ft | 483 kts | 205° |
| 2026-05-09 10:55 | 35.54266 | -113.47806 | 25383 ft | 489 kts | 194° |
| 2026-05-09 10:55 | 35.50868 | -113.48236 | 25720 ft | 495 kts | 183° |
| 2026-05-09 10:56 | 35.47437 | -113.47843 | 26066 ft | 500 kts | 172° |
| 2026-05-09 10:56 | 35.44074 | -113.46611 | 26400 ft | 505 kts | 160° |
| 2026-05-09 10:56 | 35.40968 | -113.44587 | 26741 ft | 508 kts | 148° |
| 2026-05-09 10:56 | 35.38253 | -113.41884 | 27092 ft | 510 kts | 136° |
| 2026-05-09 10:57 | 35.35986 | -113.38545 | 27416 ft | 511 kts | 124° |
| 2026-05-09 10:57 | 35.34300 | -113.34721 | 27806 ft | 508 kts | 112° |
| 2026-05-09 10:57 | 35.33264 | -113.30586 | 28181 ft | 505 kts | 99° |
| 2026-05-09 10:57 | 35.32916 | -113.26312 | 28539 ft | 501 kts | 88° |
| 2026-05-09 10:58 | 35.33246 | -113.22091 | 28850 ft | 497 kts | 76° |
| 2026-05-09 10:58 | 35.34214 | -113.18129 | 28910 ft | 490 kts | 64° |
| 2026-05-09 10:58 | 35.35780 | -113.14450 | 28900 ft | 484 kts | 53° |
| 2026-05-09 10:59 | 35.39714 | -113.07764 | 28900 ft | 484 kts | 50° |
| 2026-05-09 10:59 | 35.43708 | -113.01112 | 28889 ft | 484 kts | 50° |
| 2026-05-09 11:00 | 35.47670 | -112.94401 | 28912 ft | 486 kts | 50° |
| 2026-05-09 11:00 | 35.51429 | -112.87457 | 28910 ft | 492 kts | 61° |
| 2026-05-09 11:01 | 35.51880 | -112.86216 | 28911 ft | 494 kts | 64° |
| 2026-05-09 11:01 | 35.53048 | -112.80687 | 28925 ft | 501 kts | 81° |
| 2026-05-09 11:01 | 35.53108 | -112.76401 | 28935 ft | 505 kts | 93° |
| 2026-05-09 11:02 | 35.52627 | -112.72120 | 28935 ft | 506 kts | 97° |
| 2026-05-09 11:02 | 35.51495 | -112.63578 | 28922 ft | 506 kts | 97° |
| 2026-05-09 11:03 | 35.50038 | -112.55165 | 28935 ft | 506 kts | 110° |
| 2026-05-09 11:03 | 35.48435 | -112.51321 | 28938 ft | 507 kts | 123° |
| 2026-05-09 11:03 | 35.46177 | -112.48007 | 29020 ft | 507 kts | 137° |
| 2026-05-09 11:03 | 35.43383 | -112.45396 | 29072 ft | 505 kts | 150° |
| 2026-05-09 11:04 | 35.40242 | -112.43628 | 29099 ft | 502 kts | 163° |
| 2026-05-09 11:04 | 35.33413 | -112.42025 | 29128 ft | 498 kts | 174° |
| 2026-05-09 11:05 | 35.26555 | -112.40751 | 29129 ft | 498 kts | 173° |
| 2026-05-09 11:05 | 35.19699 | -112.39420 | 29113 ft | 498 kts | 173° |
| 2026-05-09 11:06 | 35.12858 | -112.37964 | 28943 ft | 499 kts | 172° |
| 2026-05-09 11:06 | 35.09494 | -112.37217 | 28731 ft | 491 kts | 172° |
| 2026-05-09 11:06 | 35.06129 | -112.36477 | 27639 ft | 493 kts | 172° |
| 2026-05-09 11:06 | 35.02731 | -112.35738 | 26542 ft | 497 kts | 172° |
| 2026-05-09 11:07 | 34.99314 | -112.34999 | 26042 ft | 498 kts | 172° |
| 2026-05-09 11:07 | 34.95902 | -112.34261 | 25683 ft | 498 kts | 172° |
| 2026-05-09 11:07 | 34.92503 | -112.33525 | 25320 ft | 491 kts | 172° |
| 2026-05-09 11:07 | 34.89214 | -112.32813 | 24937 ft | 480 kts | 172° |
| 2026-05-09 11:08 | 34.85904 | -112.32098 | 24543 ft | 474 kts | 172° |
| 2026-05-09 11:08 | 34.82703 | -112.31397 | 24167 ft | 473 kts | 172° |
| 2026-05-09 11:08 | 34.79480 | -112.30684 | 23776 ft | 470 kts | 172° |
| 2026-05-09 11:08 | 34.76273 | -112.29975 | 23342 ft | 466 kts | 172° |
| 2026-05-09 11:09 | 34.73092 | -112.29275 | 22896 ft | 462 kts | 172° |
| 2026-05-09 11:09 | 34.69933 | -112.28582 | 22465 ft | 459 kts | 172° |
| 2026-05-09 11:09 | 34.66798 | -112.27894 | 22048 ft | 455 kts | 172° |
| 2026-05-09 11:09 | 34.63690 | -112.27211 | 21630 ft | 452 kts | 172° |
| 2026-05-09 11:10 | 34.60597 | -112.26534 | 21211 ft | 449 kts | 172° |
| 2026-05-09 11:10 | 34.57526 | -112.25861 | 20793 ft | 446 kts | 172° |
| 2026-05-09 11:10 | 34.54479 | -112.25193 | 20382 ft | 442 kts | 171° |
| 2026-05-09 11:10 | 34.51500 | -112.24542 | 19965 ft | 439 kts | 171° |
| 2026-05-09 11:11 | 34.48502 | -112.23887 | 19547 ft | 435 kts | 171° |
| 2026-05-09 11:11 | 34.45529 | -112.23237 | 19138 ft | 432 kts | 171° |
| 2026-05-09 11:11 | 34.42606 | -112.22520 | 18690 ft | 422 kts | 169° |
| 2026-05-09 11:11 | 34.39784 | -112.21787 | 18442 ft | 407 kts | 169° |
| 2026-05-09 11:12 | 34.37056 | -112.21077 | 18233 ft | 393 kts | 169° |
| 2026-05-09 11:12 | 34.34463 | -112.20403 | 18022 ft | 380 kts | 169° |
| 2026-05-09 11:12 | 34.31924 | -112.19745 | 17648 ft | 365 kts | 169° |
| 2026-05-09 11:12 | 34.29476 | -112.19112 | 17053 ft | 357 kts | 169° |
| 2026-05-09 11:13 | 34.27057 | -112.18487 | 16471 ft | 349 kts | 169° |
| 2026-05-09 11:13 | 34.24705 | -112.17878 | 16104 ft | 340 kts | 169° |
| 2026-05-09 11:13 | 34.22408 | -112.17285 | 15828 ft | 336 kts | 169° |
| 2026-05-09 11:13 | 34.20128 | -112.16698 | 15536 ft | 333 kts | 170° |
| 2026-05-09 11:14 | 34.17869 | -112.16115 | 15230 ft | 331 kts | 169° |
| 2026-05-09 11:14 | 34.15644 | -112.15541 | 14928 ft | 329 kts | 169° |
| 2026-05-09 11:14 | 34.13421 | -112.14967 | 14689 ft | 321 kts | 169° |
| 2026-05-09 11:14 | 34.11262 | -112.14411 | 14481 ft | 312 kts | 169° |
| 2026-05-09 11:15 | 34.09178 | -112.13872 | 14165 ft | 308 kts | 168° |
| 2026-05-09 11:15 | 34.07130 | -112.13155 | 13838 ft | 305 kts | 163° |
| 2026-05-09 11:15 | 34.05131 | -112.12342 | 13511 ft | 302 kts | 163° |
| 2026-05-09 11:15 | 34.03137 | -112.11520 | 13188 ft | 301 kts | 163° |
| 2026-05-09 11:16 | 34.01158 | -112.10706 | 12886 ft | 300 kts | 163° |
| 2026-05-09 11:16 | 33.99184 | -112.09899 | 12581 ft | 298 kts | 163° |
| 2026-05-09 11:16 | 33.97224 | -112.09100 | 12303 ft | 296 kts | 163° |
| 2026-05-09 11:16 | 33.95275 | -112.08306 | 12026 ft | 295 kts | 162° |
| 2026-05-09 11:17 | 33.93662 | -112.07648 | 11795 ft | 293 kts | 162° |
| 2026-05-09 11:17 | 33.91737 | -112.06865 | 11525 ft | 291 kts | 162° |
| 2026-05-09 11:17 | 33.89850 | -112.06098 | 11256 ft | 289 kts | 162° |
| 2026-05-09 11:17 | 33.87943 | -112.05323 | 11006 ft | 287 kts | 162° |
| 2026-05-09 11:18 | 33.86055 | -112.04557 | 10720 ft | 286 kts | 162° |
| 2026-05-09 11:18 | 33.84164 | -112.03791 | 10413 ft | 286 kts | 162° |
| 2026-05-09 11:18 | 33.82276 | -112.03025 | 10100 ft | 287 kts | 161° |
| 2026-05-09 11:18 | 33.80383 | -112.02256 | 9797 ft | 287 kts | 161° |
| 2026-05-09 11:19 | 33.78493 | -112.01489 | 9503 ft | 286 kts | 161° |
| 2026-05-09 11:19 | 33.76641 | -112.00739 | 9230 ft | 284 kts | 161° |
| 2026-05-09 11:19 | 33.74773 | -111.99983 | 9013 ft | 283 kts | 161° |
| 2026-05-09 11:19 | 33.72906 | -111.99229 | 8796 ft | 283 kts | 162° |
| 2026-05-09 11:20 | 33.71044 | -111.98477 | 8601 ft | 282 kts | 162° |
| 2026-05-09 11:20 | 33.69188 | -111.97726 | 8414 ft | 280 kts | 162° |
| 2026-05-09 11:20 | 33.67351 | -111.96985 | 8234 ft | 275 kts | 162° |
| 2026-05-09 11:20 | 33.65550 | -111.96258 | 8052 ft | 271 kts | 162° |
| 2026-05-09 11:21 | 33.63763 | -111.95536 | 7741 ft | 271 kts | 162° |
| 2026-05-09 11:21 | 33.62001 | -111.94824 | 7454 ft | 270 kts | 163° |
| 2026-05-09 11:21 | 33.60224 | -111.94105 | 7219 ft | 269 kts | 163° |
| 2026-05-09 11:21 | 33.58442 | -111.93386 | 7046 ft | 269 kts | 163° |
| 2026-05-09 11:22 | 33.57104 | -111.92842 | 7004 ft | 260 kts | 163° |
| 2026-05-09 11:22 | 33.55450 | -111.92168 | 6997 ft | 245 kts | 163° |
| 2026-05-09 11:22 | 33.53882 | -111.91398 | 7004 ft | 243 kts | 147° |
| 2026-05-09 11:22 | 33.52811 | -111.89917 | 7020 ft | 235 kts | 114° |
| 2026-05-09 11:23 | 33.52557 | -111.88010 | 6562 ft | 233 kts | 86° |
| 2026-05-09 11:23 | 33.52609 | -111.86048 | 6129 ft | 236 kts | 86° |
| 2026-05-09 11:23 | 33.52641 | -111.84102 | 5723 ft | 236 kts | 86° |
| 2026-05-09 11:23 | 33.52696 | -111.82142 | 5340 ft | 235 kts | 86° |
| 2026-05-09 11:24 | 33.52741 | -111.80190 | 5003 ft | 234 kts | 86° |
| 2026-05-09 11:24 | 33.52686 | -111.78254 | 4665 ft | 231 kts | 103° |
| 2026-05-09 11:24 | 33.52011 | -111.76554 | 4430 ft | 229 kts | 131° |
| 2026-05-09 11:24 | 33.50741 | -111.75424 | 4260 ft | 226 kts | 154° |
| 2026-05-09 11:25 | 33.49245 | -111.74971 | 4111 ft | 221 kts | 182° |
| 2026-05-09 11:25 | 33.47787 | -111.75410 | 3968 ft | 216 kts | 209° |
| 2026-05-09 11:25 | 33.46677 | -111.76557 | 4192 ft | 217 kts | 230° |
| 2026-05-09 11:25 | 33.45834 | -111.78036 | 4103 ft | 215 kts | 238° |
| 2026-05-09 11:26 | 33.45005 | -111.79534 | 4055 ft | 214 kts | 238° |
| 2026-05-09 11:26 | 33.44322 | -111.81099 | 3930 ft | 210 kts | 253° |
| 2026-05-09 11:26 | 33.44026 | -111.82797 | 3719 ft | 208 kts | 266° |
| 2026-05-09 11:26 | 33.43998 | -111.84506 | 3545 ft | 197 kts | 273° |
| 2026-05-09 11:27 | 33.44082 | -111.86080 | 3365 ft | 185 kts | 273° |
| 2026-05-09 11:27 | 33.44069 | -111.87609 | 3002 ft | 185 kts | 266° |
| 2026-05-09 11:27 | 33.44009 | -111.89140 | 2712 ft | 182 kts | 270° |
| 2026-05-09 11:27 | 33.44057 | -111.90579 | 2531 ft | 160 kts | 272° |
| 2026-05-09 11:28 | 33.44054 | -111.91820 | 2239 ft | 145 kts | 269° |
| 2026-05-09 11:28 | 33.44065 | -111.93024 | 2118 ft | 145 kts | 270° |
| 2026-05-09 11:28 | 33.44065 | -111.94234 | 1958 ft | 145 kts | 269° |
| 2026-05-09 11:28 | 33.44064 | -111.95405 | 1799 ft | 145 kts | 270° |
| 2026-05-09 11:29 | 33.44077 | -111.96658 | 1596 ft | 145 kts | 271° |
| 2026-05-09 11:29 | 33.44079 | -111.97863 | 1377 ft | 144 kts | 269° |
| 2026-05-09 11:29 | 33.44086 | -111.99060 | 1188 ft | 144 kts | 270° |
| 2026-05-09 11:29 | 33.44083 | -112.00158 | 1137 ft | 117 kts | 270° |
| 2026-05-09 11:30 | 33.44084 | -112.00936 | 1135 ft | 68 kts | 270° |
| 2026-05-09 11:30 | 33.44083 | -112.01305 | 1136 ft | 3 kts | 266° |
| 2026-05-09 11:30 | 33.44076 | -112.01321 | 1138 ft | 4 kts | 229° |
| 2026-05-09 11:30 | 33.44047 | -112.01346 | 1138 ft | 6 kts | 212° |
| 2026-05-09 11:31 | 33.44008 | -112.01362 | 1135 ft | 7 kts | 167° |
| 2026-05-09 11:31 | 33.43975 | -112.01316 | 1133 ft | 8 kts | 105° |
| 2026-05-09 11:31 | 33.43975 | -112.01299 | 1135 ft | 0 kts | 86° |
| 2026-05-09 11:33 | 33.43975 | -112.01291 | 1135 ft | 2 kts | 89° |
| 2026-05-09 11:34 | 33.43976 | -112.01264 | 1135 ft | 4 kts | 88° |
| 2026-05-09 11:34 | 33.43977 | -112.01218 | 1136 ft | 7 kts | 88° |
| 2026-05-09 11:34 | 33.43977 | -112.01153 | 1132 ft | 9 kts | 93° |
| 2026-05-09 11:34 | 33.43974 | -112.01073 | 1132 ft | 11 kts | 91° |
| 2026-05-09 11:35 | 33.43973 | -112.00977 | 1131 ft | 12 kts | 90° |
| 2026-05-09 11:35 | 33.43975 | -112.00866 | 1131 ft | 14 kts | 89° |
| 2026-05-09 11:35 | 33.43976 | -112.00817 | 1131 ft | 4 kts | 90° |
| 2026-05-09 11:35 | 33.43970 | -112.00772 | 1131 ft | 7 kts | 114° |
| 2026-05-09 11:36 | 33.43966 | -112.00763 | 1135 ft | 0 kts | 128° |
| 2026-05-09 11:36 | 33.43956 | -112.00752 | 1133 ft | 4 kts | 141° |
| 2026-05-09 11:37 | 33.43924 | -112.00753 | 1133 ft | 7 kts | 214° |
| 2026-05-09 11:37 | 33.43906 | -112.00789 | 1133 ft | 9 kts | 259° |
| 2026-05-09 11:37 | 33.43854 | -112.00841 | 1134 ft | 2 kts | 200° |
| 2026-05-09 11:37 | 33.43841 | -112.00847 | 1132 ft | 0 kts | 204° |
| 2026-05-09 11:38 | 33.43840 | -112.00847 | 1131 ft | 2 kts | 204° |
| 2026-05-09 11:38 | 33.43829 | -112.00854 | 1132 ft | 0 kts | 205° |